createdAt,value
2023-03-22T00:01:17.117Z,70.13
2023-03-22T00:03:44.311Z,69.98
2023-03-22T00:06:11.513Z,70.11
2023-03-22T00:08:39.059Z,70.33
2023-03-22T00:11:06.461Z,70.19
2023-03-22T00:13:35.726Z,70.45
2023-03-22T00:16:05.909Z,70.73
2023-03-22T00:18:32.852Z,70.55
2023-03-22T00:21:00.632Z,70.85
2023-03-22T00:23:28.715Z,70.94
2023-03-22T00:25:56.215Z,71.16
2023-03-22T00:28:23.140Z,71.08
2023-03-22T00:30:55.248Z,71.23
2023-03-22T00:33:22.403Z,70.98
2023-03-22T00:35:54.562Z,71.16
2023-03-22T00:38:27.278Z,70.98
2023-03-22T00:41:06.419Z,70.76
2023-03-22T00:43:33.008Z,70.97
2023-03-22T00:45:59.897Z,71.06
2023-03-22T00:48:26.519Z,71.20
2023-03-22T00:50:53.359Z,71.04
2023-03-22T00:53:20.043Z,71.03
2023-03-22T00:55:46.639Z,71.45
2023-03-22T00:58:13.496Z,71.21
2023-03-22T01:00:40.861Z,71.45
2023-03-22T01:03:08.645Z,71.29
2023-03-22T01:05:36.050Z,71.51
2023-03-22T01:08:08.415Z,71.41
2023-03-22T01:10:37.316Z,71.36
2023-03-22T01:13:04.871Z,71.27
2023-03-22T01:15:31.650Z,71.18
2023-03-22T01:17:59.449Z,71.15
2023-03-22T01:20:26.761Z,71.18
2023-03-22T01:22:53.584Z,71.07
2023-03-22T01:25:20.382Z,71.34
2023-03-22T01:27:47.272Z,71.16
2023-03-22T01:30:14.155Z,71.37
2023-03-22T01:32:41.295Z,71.23
2023-03-22T01:35:08.442Z,71.19
2023-03-22T01:37:35.307Z,71.30
2023-03-22T01:40:01.970Z,71.63
2023-03-22T01:42:29.188Z,71.39
2023-03-22T01:45:36.479Z,71.58
2023-03-22T01:48:17.329Z,71.53
2023-03-22T01:50:58.817Z,72.05
2023-03-22T01:53:27.487Z,71.77
2023-03-22T01:55:57.826Z,72.06
2023-03-22T01:58:24.828Z,71.69
2023-03-22T02:00:52.735Z,71.79
2023-03-22T02:03:30.441Z,71.98
2023-03-22T02:05:57.712Z,71.78
2023-03-22T02:08:24.564Z,71.84
2023-03-22T02:10:52.080Z,71.62
2023-03-22T02:13:31.026Z,72.06
2023-03-22T02:16:23.907Z,72.20
2023-03-22T02:19:08.919Z,72.24
2023-03-22T02:21:41.341Z,72.29
2023-03-22T02:24:45.892Z,72.36
2023-03-22T02:27:40.535Z,72.20
2023-03-22T02:30:25.910Z,72.13
2023-03-22T02:33:13.658Z,72.22
2023-03-22T02:35:52.690Z,72.40
2023-03-22T02:38:54.064Z,72.29
2023-03-22T02:41:57.342Z,72.24
2023-03-22T02:44:39.224Z,72.56
2023-03-22T02:47:38.629Z,72.29
2023-03-22T02:50:23.319Z,72.70
2023-03-22T02:53:09.811Z,72.68
2023-03-22T02:55:51.501Z,72.46
2023-03-22T02:58:23.999Z,72.69
2023-03-22T03:00:55.907Z,72.85
2023-03-22T03:03:25.591Z,72.47
2023-03-22T03:05:56.875Z,72.71
2023-03-22T03:08:25.323Z,72.78
2023-03-22T03:10:53.774Z,72.72
2023-03-22T03:13:21.114Z,72.78
2023-03-22T03:15:54.927Z,72.82
2023-03-22T03:18:32.412Z,72.93
2023-03-22T03:21:05.739Z,72.93
2023-03-22T03:23:40.567Z,72.45
2023-03-22T03:27:01.859Z,72.75
2023-03-22T03:30:07.028Z,72.42
2023-03-22T03:32:42.367Z,72.85
2023-03-22T03:35:23.568Z,72.69
2023-03-22T03:38:18.753Z,72.54
2023-03-22T03:40:49.595Z,72.51
2023-03-22T03:43:17.154Z,72.51
2023-03-22T03:45:44.639Z,72.71
2023-03-22T03:48:19.031Z,72.77
2023-03-22T03:50:48.343Z,72.88
2023-03-22T03:53:15.006Z,72.60
2023-03-22T03:55:41.936Z,73.03
2023-03-22T03:58:09.616Z,72.93
2023-03-22T04:00:37.342Z,72.87
2023-03-22T04:03:06.449Z,72.76
2023-03-22T04:05:33.536Z,73.06
2023-03-22T04:08:00.241Z,73.17
2023-03-22T04:10:26.902Z,72.99
2023-03-22T04:12:53.998Z,73.03
2023-03-22T04:15:20.796Z,72.88
2023-03-22T04:17:47.668Z,73.05
2023-03-22T04:20:14.687Z,73.24
2023-03-22T04:22:42.086Z,73.19
2023-03-22T04:25:12.813Z,73.37
2023-03-22T04:27:41.199Z,73.48
2023-03-22T04:30:18.872Z,73.61
2023-03-22T04:32:49.646Z,73.29
2023-03-22T04:35:16.952Z,73.66
2023-03-22T04:37:43.759Z,73.29
2023-03-22T04:40:16.378Z,73.34
2023-03-22T04:42:44.595Z,73.36
2023-03-22T04:45:13.223Z,73.52
2023-03-22T04:47:40.770Z,73.45
2023-03-22T04:50:09.032Z,73.58
2023-03-22T04:52:35.977Z,73.84
2023-03-22T04:55:02.792Z,73.85
2023-03-22T04:57:29.438Z,73.77
2023-03-22T04:59:56.199Z,73.97
2023-03-22T05:02:22.967Z,73.98
2023-03-22T05:04:50.009Z,73.97
2023-03-22T05:07:16.734Z,74.22
2023-03-22T05:09:43.314Z,74.44
2023-03-22T05:12:10.085Z,74.47
2023-03-22T05:14:36.857Z,74.38
2023-03-22T05:17:03.865Z,74.59
2023-03-22T05:19:30.772Z,74.79
2023-03-22T05:21:58.415Z,74.77
2023-03-22T05:24:25.295Z,74.85
2023-03-22T05:26:54.034Z,74.84
2023-03-22T05:29:21.530Z,74.91
2023-03-22T05:31:48.678Z,74.96
2023-03-22T05:34:15.428Z,74.89
2023-03-22T05:36:42.308Z,74.67
2023-03-22T05:39:09.386Z,75.18
2023-03-22T05:41:36.988Z,74.95
2023-03-22T05:44:04.636Z,75.19
2023-03-22T05:46:31.255Z,75.23
2023-03-22T05:48:58.125Z,75.14
2023-03-22T05:51:27.858Z,75.16
2023-03-22T05:53:54.656Z,75.27
2023-03-22T05:56:24.567Z,75.43
2023-03-22T05:58:51.996Z,75.39
2023-03-22T06:01:20.608Z,75.28
2023-03-22T06:03:48.845Z,75.52
2023-03-22T06:06:16.189Z,75.33
2023-03-22T06:08:43.298Z,75.75
2023-03-22T06:11:10.675Z,75.46
2023-03-22T06:13:38.229Z,75.40
2023-03-22T06:16:05.480Z,75.52
2023-03-22T06:18:33.402Z,75.68
2023-03-22T06:21:00.753Z,75.45
2023-03-22T06:23:27.788Z,75.59
2023-03-22T06:25:54.996Z,75.63
2023-03-22T06:28:21.878Z,75.75
2023-03-22T06:30:48.491Z,75.92
2023-03-22T06:33:15.632Z,75.88
2023-03-22T06:35:42.531Z,76.12
2023-03-22T06:38:09.377Z,76.35
2023-03-22T06:40:36.341Z,76.38
2023-03-22T06:43:06.935Z,76.37
2023-03-22T06:45:33.762Z,76.50
2023-03-22T06:48:01.196Z,76.38
2023-03-22T06:50:29.167Z,76.51
2023-03-22T06:52:56.245Z,76.37
2023-03-22T06:55:23.601Z,76.33
2023-03-22T06:57:50.369Z,76.31
2023-03-22T07:00:17.314Z,76.34
2023-03-22T07:02:44.290Z,76.20
2023-03-22T07:05:11.285Z,76.35
2023-03-22T07:07:38.130Z,76.33
2023-03-22T07:10:05.526Z,76.67
2023-03-22T07:12:32.508Z,76.74
2023-03-22T07:14:59.396Z,76.68
2023-03-22T07:17:26.161Z,76.71
2023-03-22T07:19:53.366Z,76.49
2023-03-22T07:22:23.007Z,76.60
2023-03-22T07:24:57.062Z,76.80
2023-03-22T07:27:24.832Z,76.68
2023-03-22T07:29:51.797Z,76.65
2023-03-22T07:32:18.498Z,76.72
2023-03-22T07:34:45.560Z,76.61
2023-03-22T07:37:12.486Z,76.50
2023-03-22T07:39:39.143Z,76.53
2023-03-22T07:42:06.822Z,76.60
2023-03-22T07:44:33.864Z,76.48
2023-03-22T07:47:00.762Z,76.45
2023-03-22T07:49:27.832Z,76.45
2023-03-22T07:51:54.674Z,76.54
2023-03-22T07:54:32.828Z,76.62
2023-03-22T07:57:02.041Z,76.58
2023-03-22T07:59:29.313Z,76.06
2023-03-22T08:01:56.029Z,75.67
2023-03-22T08:04:23.378Z,75.10
2023-03-22T08:06:51.422Z,74.45
2023-03-22T08:09:18.396Z,74.10
2023-03-22T08:11:45.748Z,74.15
2023-03-22T08:14:12.485Z,74.07
2023-03-22T08:16:39.385Z,73.83
2023-03-22T08:19:06.874Z,73.77
2023-03-22T08:21:33.477Z,73.48
2023-03-22T08:24:00.160Z,73.39
2023-03-22T08:26:28.017Z,73.07
2023-03-22T08:28:54.720Z,72.91
2023-03-22T08:31:22.489Z,72.60
2023-03-22T08:33:49.907Z,72.52
2023-03-22T08:36:19.764Z,72.30
2023-03-22T08:38:46.493Z,72.32
2023-03-22T08:41:13.973Z,72.04
2023-03-22T08:43:40.718Z,71.58
2023-03-22T08:46:07.599Z,71.00
2023-03-22T08:48:38.130Z,70.61
2023-03-22T08:51:06.460Z,70.07
2023-03-22T08:53:33.146Z,69.56
2023-03-22T08:56:01.998Z,69.06
2023-03-22T08:58:28.695Z,68.39
2023-03-22T09:00:55.454Z,67.87
2023-03-22T09:03:24.357Z,67.15
2023-03-22T09:05:51.064Z,66.88
2023-03-22T09:08:19.416Z,66.03
2023-03-22T09:10:51.594Z,65.54
2023-03-22T09:13:18.859Z,65.41
2023-03-22T09:15:45.751Z,64.60
2023-03-22T09:18:13.430Z,64.48
2023-03-22T09:20:40.663Z,64.03
2023-03-22T09:23:07.415Z,63.47
2023-03-22T09:25:34.693Z,63.21
2023-03-22T09:28:01.745Z,62.76
2023-03-22T09:30:28.683Z,61.88
2023-03-22T09:32:55.712Z,61.55
2023-03-22T09:35:22.678Z,60.73
2023-03-22T09:37:49.616Z,59.99
2023-03-22T09:40:17.725Z,59.44
2023-03-22T09:42:48.478Z,58.77
2023-03-22T09:45:30.369Z,58.88
2023-03-22T09:47:59.759Z,58.49
2023-03-22T09:50:31.061Z,58.08
2023-03-22T09:53:00.323Z,58.17
2023-03-22T09:55:41.697Z,57.54
2023-03-22T09:58:27.401Z,57.60
2023-03-22T10:01:18.512Z,57.19
2023-03-22T10:04:26.784Z,57.13
2023-03-22T10:07:03.194Z,56.70
2023-03-22T10:09:39.358Z,56.22
2023-03-22T10:12:12.477Z,55.75
2023-03-22T10:14:43.974Z,55.03
2023-03-22T10:17:17.841Z,54.70
2023-03-22T10:20:00.408Z,54.39
2023-03-22T10:22:34.327Z,53.67
2023-03-22T10:25:01.745Z,52.72
2023-03-22T10:27:30.570Z,51.89
2023-03-22T10:30:18.788Z,51.29
2023-03-22T10:32:58.140Z,50.69
2023-03-22T10:35:25.932Z,49.93
2023-03-22T10:37:54.794Z,48.46
2023-03-22T10:40:27.486Z,48.27
2023-03-22T10:43:06.157Z,48.57
2023-03-22T10:45:35.701Z,48.05
2023-03-22T10:48:11.768Z,47.71
2023-03-22T10:50:42.252Z,47.45
2023-03-22T10:53:28.067Z,46.90
2023-03-22T10:55:54.963Z,46.97
2023-03-22T10:58:28.336Z,46.16
2023-03-22T11:00:59.823Z,45.67
2023-03-22T11:03:30.964Z,45.07
2023-03-22T11:05:59.881Z,44.83
2023-03-22T11:08:26.738Z,44.75
2023-03-22T11:10:55.077Z,44.41
2023-03-22T11:13:24.315Z,44.40
2023-03-22T11:16:03.836Z,44.24
2023-03-22T11:18:32.637Z,44.32
2023-03-22T11:21:05.910Z,44.27
2023-03-22T11:23:34.646Z,44.30
2023-03-22T11:26:11.026Z,44.21
2023-03-22T11:28:42.254Z,44.19
2023-03-22T11:31:15.285Z,44.03
2023-03-22T11:33:57.973Z,44.43
2023-03-22T11:36:25.928Z,44.51
2023-03-22T11:39:06.614Z,44.78
2023-03-22T11:41:37.855Z,45.50
2023-03-22T11:44:16.658Z,46.06
2023-03-22T11:46:54.866Z,45.99
2023-03-22T11:49:26.768Z,46.27
2023-03-22T11:51:55.803Z,46.46
2023-03-22T11:54:36.532Z,46.53
2023-03-22T11:57:06.622Z,46.63
2023-03-22T11:59:39.059Z,46.59
2023-03-22T12:02:22.745Z,46.66
2023-03-22T12:04:53.103Z,46.78
2023-03-22T12:07:22.060Z,46.46
2023-03-22T12:10:35.482Z,46.46
2023-03-22T12:13:10.381Z,45.87
2023-03-22T12:15:42.781Z,45.81
2023-03-22T12:18:28.816Z,45.59
2023-03-22T12:20:58.177Z,45.28
2023-03-22T12:23:31.034Z,44.95
2023-03-22T12:26:05.918Z,44.61
2023-03-22T12:28:55.707Z,44.42
2023-03-22T12:31:28.689Z,44.28
2023-03-22T12:33:58.418Z,44.71
2023-03-22T12:36:38.603Z,45.14
2023-03-22T12:39:07.152Z,45.70
2023-03-22T12:41:40.370Z,45.86
2023-03-22T12:44:24.609Z,45.53
2023-03-22T12:47:17.932Z,45.80
2023-03-22T12:50:07.253Z,45.97
2023-03-22T12:52:45.846Z,45.85
2023-03-22T12:55:24.275Z,45.85
2023-03-22T12:57:53.245Z,45.82
2023-03-22T13:00:27.392Z,45.96
2023-03-22T13:03:02.253Z,46.37
2023-03-22T13:05:34.232Z,46.12
2023-03-22T13:08:05.375Z,46.12
2023-03-22T13:10:36.352Z,46.14
2023-03-22T13:13:24.441Z,45.99
2023-03-22T13:16:09.377Z,45.91
2023-03-22T13:18:36.495Z,46.00
2023-03-22T13:21:11.546Z,45.45
2023-03-22T13:23:53.477Z,45.09
2023-03-22T13:26:28.027Z,44.60
2023-03-22T13:29:00.568Z,44.76
2023-03-22T13:31:41.761Z,44.83
2023-03-22T13:34:20.919Z,44.95
2023-03-22T13:36:54.318Z,45.15
2023-03-22T13:39:25.482Z,45.37
2023-03-22T13:42:09.859Z,45.81
2023-03-22T13:44:40.067Z,45.82
2023-03-22T13:47:29.949Z,46.00
2023-03-22T13:50:20.909Z,46.02
2023-03-22T13:53:07.392Z,46.17
2023-03-22T13:55:46.413Z,46.30
2023-03-22T13:58:36.901Z,46.38
2023-03-22T14:01:29.956Z,46.37
2023-03-22T14:04:01.298Z,46.56
2023-03-22T14:06:35.105Z,46.18
2023-03-22T14:09:11.038Z,46.56
2023-03-22T14:11:57.132Z,46.53
2023-03-22T14:14:32.710Z,46.29
2023-03-22T14:17:05.794Z,46.16
2023-03-22T14:19:34.888Z,46.29
